createdAt,value
2022-09-03T00:00:15.397Z,100626.66
2022-09-03T00:02:45.836Z,100627.75
2022-09-03T00:05:19.012Z,100619.81
2022-09-03T00:08:09.811Z,100618.34
2022-09-03T00:10:44.890Z,100615.31
2022-09-03T00:13:16.378Z,100622.16
2022-09-03T00:15:43.670Z,100629.13
2022-09-03T00:18:14.234Z,100632.22
2022-09-03T00:20:41.488Z,100635.34
2022-09-03T00:23:11.077Z,100639.91
2022-09-03T00:25:40.755Z,100637.81
2022-09-03T00:28:13.156Z,100634.53
2022-09-03T00:30:41.817Z,100639.56
2022-09-03T00:33:12.188Z,100641.34
2022-09-03T00:35:43.520Z,100637.00
2022-09-03T00:38:10.805Z,100639.41
2022-09-03T00:40:46.867Z,100641.25
2022-09-03T00:43:32.285Z,100643.06
2022-09-03T00:46:11.504Z,100645.78
2022-09-03T00:49:04.763Z,100646.66
2022-09-03T00:51:55.978Z,100638.84
2022-09-03T00:54:43.477Z,100640.69
2022-09-03T00:57:30.679Z,100646.13
2022-09-03T00:59:59.023Z,100646.25
2022-09-03T01:02:34.233Z,100647.84
2022-09-03T01:05:10.634Z,100652.66
2022-09-03T01:07:43.683Z,100655.56
2022-09-03T01:10:11.515Z,100656.44
2022-09-03T01:12:47.560Z,100660.84
2022-09-03T01:15:14.715Z,100665.03
2022-09-03T01:17:47.845Z,100654.44
2022-09-03T01:20:14.973Z,100658.25
2022-09-03T01:22:51.106Z,100656.63
2022-09-03T01:25:37.151Z,100654.44
2022-09-03T01:28:22.725Z,100652.03
2022-09-03T01:30:57.146Z,100644.19
2022-09-03T01:33:31.620Z,100646.66
2022-09-03T01:35:58.802Z,100644.81
2022-09-03T01:38:44.789Z,100635.03
2022-09-03T01:41:39.480Z,100649.06
2022-09-03T01:44:13.024Z,100644.06
2022-09-03T01:46:41.178Z,100646.13
2022-09-03T01:49:11.523Z,100650.97
2022-09-03T01:51:38.935Z,100649.25
2022-09-03T01:54:21.798Z,100659.13
2022-09-03T01:56:51.942Z,100650.13
2022-09-03T01:59:21.928Z,100649.56
2022-09-03T02:01:58.832Z,100656.53
2022-09-03T02:04:26.773Z,100660.91
2022-09-03T02:06:54.787Z,100658.19
2022-09-03T02:09:21.990Z,100658.94
2022-09-03T02:12:03.599Z,100661.88
2022-09-03T02:14:31.080Z,100651.81
2022-09-03T02:17:00.525Z,100659.69
2022-09-03T02:19:28.230Z,100644.66
2022-09-03T02:21:56.385Z,100656.00
2022-09-03T02:24:28.243Z,100657.09
2022-09-03T02:26:55.861Z,100658.44
2022-09-03T02:29:23.931Z,100652.16
2022-09-03T02:31:51.442Z,100654.00
2022-09-03T02:34:18.608Z,100656.13
2022-09-03T02:36:47.552Z,100648.03
2022-09-03T02:39:15.588Z,100656.13
2022-09-03T02:41:43.954Z,100643.16
2022-09-03T02:44:17.853Z,100653.41
2022-09-03T02:46:48.657Z,100655.06
2022-09-03T02:49:16.373Z,100658.69
2022-09-03T02:51:44.095Z,100665.84
2022-09-03T02:54:12.358Z,100661.09
2022-09-03T02:56:39.591Z,100655.59
2022-09-03T02:59:08.243Z,100671.78
2022-09-03T03:01:35.778Z,100663.75
2022-09-03T03:04:03.202Z,100666.38
2022-09-03T03:06:30.429Z,100670.81
2022-09-03T03:08:57.778Z,100672.00
2022-09-03T03:11:27.333Z,100672.00
2022-09-03T03:13:54.544Z,100676.97
2022-09-03T03:16:21.791Z,100675.16
2022-09-03T03:18:49.106Z,100680.34
2022-09-03T03:21:16.981Z,100680.47
2022-09-03T03:23:44.729Z,100676.44
2022-09-03T03:26:13.680Z,100683.59
2022-09-03T03:28:42.489Z,100690.09
2022-09-03T03:31:11.649Z,100681.19
2022-09-03T03:33:39.561Z,100679.34
2022-09-03T03:36:07.096Z,100694.28
2022-09-03T03:38:34.616Z,100689.44
2022-09-03T03:41:15.808Z,100686.31
2022-09-03T03:43:43.255Z,100679.34
2022-09-03T03:46:13.299Z,100684.97
2022-09-03T03:48:40.611Z,100672.56
2022-09-03T03:51:09.028Z,100673.72
2022-09-03T03:53:37.832Z,100664.41
2022-09-03T03:56:06.564Z,100662.13
2022-09-03T03:58:34.189Z,100654.50
2022-09-03T04:01:09.057Z,100662.63
2022-09-03T04:03:36.401Z,100660.03
2022-09-03T04:06:04.793Z,100650.19
2022-09-03T04:08:34.925Z,100645.25
2022-09-03T04:11:03.045Z,100659.22
2022-09-03T04:13:34.312Z,100661.72
2022-09-03T04:16:05.660Z,100657.59
2022-09-03T04:18:33.960Z,100651.63
2022-09-03T04:21:04.243Z,100645.88
2022-09-03T04:23:32.381Z,100646.66
2022-09-03T04:25:59.626Z,100648.06
2022-09-03T04:28:27.317Z,100644.06
2022-09-03T04:30:54.959Z,100642.22
2022-09-03T04:33:24.931Z,100638.09
2022-09-03T04:35:52.135Z,100637.34
2022-09-03T04:38:19.362Z,100630.06
2022-09-03T04:40:52.305Z,100640.50
2022-09-03T04:43:19.575Z,100641.78
2022-09-03T04:45:46.904Z,100641.03
2022-09-03T04:48:14.349Z,100657.59
2022-09-03T04:50:42.095Z,100653.03
2022-09-03T04:53:09.329Z,100656.38
2022-09-03T04:55:37.454Z,100656.63
2022-09-03T04:58:04.993Z,100655.22
2022-09-03T05:00:32.183Z,100652.50
2022-09-03T05:03:04.876Z,100653.16
2022-09-03T05:05:33.769Z,100650.34
2022-09-03T05:08:04.158Z,100647.09
2022-09-03T05:10:31.556Z,100643.63
2022-09-03T05:12:59.776Z,100650.56
2022-09-03T05:15:27.425Z,100648.06
2022-09-03T05:17:58.628Z,100651.84
2022-09-03T05:20:26.353Z,100654.44
2022-09-03T05:22:53.602Z,100651.97
2022-09-03T05:25:21.080Z,100654.91
2022-09-03T05:27:48.614Z,100665.94
2022-09-03T05:30:15.999Z,100664.31
2022-09-03T05:32:43.216Z,100670.00
2022-09-03T05:35:11.016Z,100668.31
2022-09-03T05:37:38.259Z,100666.91
2022-09-03T05:40:06.115Z,100664.53
2022-09-03T05:42:37.370Z,100666.69
2022-09-03T05:45:11.088Z,100659.31
2022-09-03T05:47:39.601Z,100665.47
2022-09-03T05:50:08.747Z,100655.84
2022-09-03T05:52:36.221Z,100649.09
2022-09-03T05:55:04.347Z,100641.59
2022-09-03T05:57:31.983Z,100633.59
2022-09-03T06:00:00.277Z,100631.75
2022-09-03T06:02:27.549Z,100635.97
2022-09-03T06:04:56.021Z,100633.06
2022-09-03T06:07:23.213Z,100628.41
2022-09-03T06:09:50.490Z,100622.44
2022-09-03T06:12:17.708Z,100620.25
2022-09-03T06:14:44.923Z,100618.09
2022-09-03T06:17:13.095Z,100623.22
2022-09-03T06:19:42.309Z,100617.22
2022-09-03T06:22:09.565Z,100620.19
2022-09-03T06:24:36.873Z,100626.47
2022-09-03T06:27:04.163Z,100619.44
2022-09-03T06:29:31.546Z,100629.59
2022-09-03T06:31:59.486Z,100629.31
2022-09-03T06:34:27.309Z,100634.31
2022-09-03T06:36:54.797Z,100637.94
2022-09-03T06:39:22.424Z,100641.06
2022-09-03T06:41:51.863Z,100635.03
2022-09-03T06:44:26.192Z,100652.16
2022-09-03T06:46:53.571Z,100643.47
2022-09-03T06:49:20.912Z,100644.53
2022-09-03T06:51:48.123Z,100653.47
2022-09-03T06:54:16.090Z,100658.44
2022-09-03T06:56:43.307Z,100654.69
2022-09-03T06:59:14.257Z,100656.63
2022-09-03T07:01:43.786Z,100651.31
2022-09-03T07:04:12.932Z,100656.97
2022-09-03T07:06:40.889Z,100663.44
2022-09-03T07:09:08.685Z,100665.22
2022-09-03T07:11:36.702Z,100652.13
2022-09-03T07:14:04.531Z,100655.38
2022-09-03T07:16:36.215Z,100657.34
2022-09-03T07:19:04.726Z,100662.19
2022-09-03T07:21:34.108Z,100656.50
2022-09-03T07:24:03.112Z,100664.34
2022-09-03T07:26:31.121Z,100652.28
2022-09-03T07:28:58.520Z,100653.16
2022-09-03T07:31:27.662Z,100648.91
2022-09-03T07:33:58.888Z,100647.28
2022-09-03T07:36:27.844Z,100651.84
2022-09-03T07:38:56.006Z,100650.13
2022-09-03T07:41:28.362Z,100654.34
2022-09-03T07:43:57.201Z,100656.94
2022-09-03T07:46:25.685Z,100661.38
2022-09-03T07:48:58.381Z,100663.22
2022-09-03T07:51:27.818Z,100670.66
2022-09-03T07:53:56.224Z,100672.13
2022-09-03T07:56:23.804Z,100666.94
2022-09-03T07:58:51.089Z,100669.78
2022-09-03T08:01:19.613Z,100680.03
2022-09-03T08:03:51.942Z,100680.91
2022-09-03T08:06:20.563Z,100686.81
2022-09-03T08:08:49.103Z,100692.50
2022-09-03T08:11:17.360Z,100692.75
2022-09-03T08:13:45.820Z,100702.88
2022-09-03T08:16:13.616Z,100708.06
2022-09-03T08:18:40.831Z,100704.75
2022-09-03T08:21:14.929Z,100702.13
2022-09-03T08:23:46.369Z,100706.81
2022-09-03T08:26:14.968Z,100707.38
2022-09-03T08:28:43.232Z,100712.63
2022-09-03T08:31:12.052Z,100709.31
2022-09-03T08:33:43.843Z,100710.69
2022-09-03T08:36:12.701Z,100725.25
2022-09-03T08:38:40.933Z,100730.72
2022-09-03T08:41:18.199Z,100722.81
2022-09-03T08:44:04.789Z,100721.78
2022-09-03T08:46:38.107Z,100719.78
2022-09-03T08:49:07.079Z,100714.56
2022-09-03T08:51:54.704Z,100708.78
2022-09-03T08:54:24.397Z,100714.03
2022-09-03T08:56:52.685Z,100724.28
2022-09-03T08:59:22.157Z,100732.28
2022-09-03T09:02:00.375Z,100716.84
2022-09-03T09:04:48.073Z,100724.94
2022-09-03T09:07:19.693Z,100724.03
2022-09-03T09:09:53.012Z,100728.44
2022-09-03T09:12:44.222Z,100720.16
2022-09-03T09:15:19.499Z,100719.19
2022-09-03T09:18:05.442Z,100732.81
2022-09-03T09:20:38.658Z,100724.66
2022-09-03T09:23:06.974Z,100714.53
2022-09-03T09:25:39.791Z,100729.41
2022-09-03T09:28:09.778Z,100724.03
2022-09-03T09:30:37.731Z,100731.56
2022-09-03T09:33:05.248Z,100733.34
2022-09-03T09:35:32.443Z,100738.69
2022-09-03T09:38:00.401Z,100727.50
2022-09-03T09:40:41.448Z,100728.19
2022-09-03T09:43:16.781Z,100727.72
2022-09-03T09:45:45.144Z,100733.91
2022-09-03T09:48:34.357Z,100730.53
2022-09-03T09:51:12.055Z,100725.38
2022-09-03T09:53:40.292Z,100728.44
2022-09-03T09:56:08.128Z,100735.41
2022-09-03T09:58:35.915Z,100729.41
2022-09-03T10:01:15.567Z,100728.38
2022-09-03T10:03:51.026Z,100729.78
2022-09-03T10:06:36.686Z,100735.53
2022-09-03T10:09:31.455Z,100732.47
2022-09-03T10:11:59.001Z,100735.06
2022-09-03T10:14:32.659Z,100733.31
2022-09-03T10:17:05.132Z,100737.56
2022-09-03T10:19:43.222Z,100727.03
2022-09-03T10:22:17.911Z,100736.03
2022-09-03T10:25:03.315Z,100731.53
2022-09-03T10:27:32.009Z,100737.63
2022-09-03T10:30:00.682Z,100734.53
2022-09-03T10:33:00.056Z,100734.34
2022-09-03T10:35:42.512Z,100728.38
2022-09-03T10:38:17.330Z,100737.16
2022-09-03T10:40:50.324Z,100732.03
2022-09-03T10:43:35.996Z,100729.09
2022-09-03T10:46:24.378Z,100729.63
2022-09-03T10:49:10.604Z,100734.81
2022-09-03T10:51:45.144Z,100729.38
2022-09-03T10:54:31.183Z,100723.97
2022-09-03T10:57:21.115Z,100722.72
2022-09-03T11:00:14.704Z,100732.34
2022-09-03T11:02:59.978Z,100726.09
2022-09-03T11:05:46.112Z,100719.75
2022-09-03T11:08:21.972Z,100716.19
2022-09-03T11:10:53.067Z,100717.38
2022-09-03T11:13:39.738Z,100718.22
2022-09-03T11:16:14.241Z,100720.84
2022-09-03T11:18:47.444Z,100715.22
2022-09-03T11:21:16.654Z,100712.63
2022-09-03T11:23:45.825Z,100704.00
2022-09-03T11:26:15.664Z,100710.56
2022-09-03T11:28:56.817Z,100709.41
2022-09-03T11:31:25.254Z,100702.59
2022-09-03T11:34:01.686Z,100705.88
2022-09-03T11:36:31.368Z,100701.34
2022-09-03T11:39:00.422Z,100702.91
2022-09-03T11:41:28.908Z,100711.69
2022-09-03T11:43:57.010Z,100702.34
2022-09-03T11:46:26.362Z,100706.50
2022-09-03T11:48:58.180Z,100698.75
2022-09-03T11:51:25.364Z,100694.03
2022-09-03T11:54:04.872Z,100695.91
2022-09-03T11:56:33.237Z,100693.00
2022-09-03T11:59:00.451Z,100694.75
2022-09-03T12:01:28.430Z,100696.19
2022-09-03T12:04:03.553Z,100693.88
2022-09-03T12:06:30.714Z,100686.69
2022-09-03T12:09:16.094Z,100690.44
2022-09-03T12:11:55.712Z,100669.88
2022-09-03T12:14:41.718Z,100667.84
2022-09-03T12:17:24.150Z,100665.72
2022-09-03T12:19:55.297Z,100665.69
2022-09-03T12:22:23.825Z,100673.63
2022-09-03T12:24:51.165Z,100667.16
2022-09-03T12:27:24.309Z,100666.13
2022-09-03T12:30:00.155Z,100668.88
2022-09-03T12:32:38.272Z,100668.16
2022-09-03T12:35:58.391Z,100662.22
2022-09-03T12:38:06.573Z,100672.03
2022-09-03T12:40:35.620Z,100681.66
2022-09-03T12:43:47.602Z,100677.22
2022-09-03T12:46:16.139Z,100666.28
2022-09-03T12:51:53.669Z,100663.16
2022-09-03T12:54:23.707Z,100663.56
2022-09-03T12:56:56.633Z,100654.94
2022-09-03T12:59:26.204Z,100655.38
2022-09-03T13:01:55.918Z,100643.00
2022-09-03T13:04:28.261Z,100651.19
2022-09-03T13:06:56.770Z,100658.38
2022-09-03T13:09:26.436Z,100659.81
2022-09-03T13:11:55.531Z,100649.59
2022-09-03T13:14:23.052Z,100644.13
2022-09-03T13:17:01.584Z,100649.59
2022-09-03T13:19:48.328Z,100643.72
2022-09-03T13:22:34.291Z,100640.69
2022-09-03T13:25:25.986Z,100636.94
2022-09-03T13:28:32.423Z,100643.00
2022-09-03T13:31:23.025Z,100636.94
2022-09-03T13:34:13.145Z,100637.41
2022-09-03T13:36:51.880Z,100630.09
2022-09-03T13:39:25.088Z,100622.16
2022-09-03T13:42:13.557Z,100623.13
2022-09-03T13:44:53.043Z,100616.41
2022-09-03T13:47:20.293Z,100612.94
2022-09-03T13:50:06.170Z,100613.25
2022-09-03T13:52:33.321Z,100613.69
2022-09-03T13:55:03.911Z,100616.97
2022-09-03T13:57:46.705Z,100613.41
2022-09-03T14:00:22.043Z,100618.00
2022-09-03T14:03:16.213Z,100608.06
2022-09-03T14:06:02.096Z,100614.25
2022-09-03T14:08:58.682Z,100616.13
2022-09-03T14:11:45.026Z,100615.56
2022-09-03T14:14:15.507Z,100609.66
2022-09-03T14:16:50.071Z,100614.09
2022-09-03T14:19:27.651Z,100606.38
2022-09-03T14:22:05.458Z,100610.53
2022-09-03T14:24:51.448Z,100602.63
2022-09-03T14:27:26.382Z,100604.78
2022-09-03T14:30:06.433Z,100596.00
2022-09-03T14:32:48.185Z,100593.00
2022-09-03T14:35:27.402Z,100594.13
2022-09-03T14:38:27.432Z,100595.59
2022-09-03T14:41:20.750Z,100589.97
2022-09-03T14:43:57.488Z,100586.69
2022-09-03T14:46:33.586Z,100587.97
2022-09-03T14:49:16.291Z,100592.00
2022-09-03T14:52:03.473Z,100589.53
2022-09-03T14:54:49.103Z,100597.31
2022-09-03T14:57:22.068Z,100601.06
2022-09-03T14:59:49.336Z,100596.72
2022-09-03T15:02:34.894Z,100586.53
2022-09-03T15:05:20.949Z,100592.88
2022-09-03T15:07:50.897Z,100586.97
2022-09-03T15:10:31.505Z,100589.53
2022-09-03T15:12:59.652Z,100590.97
2022-09-03T15:15:32.334Z,100581.50
2022-09-03T15:18:19.097Z,100577.50
2022-09-03T15:20:50.118Z,100575.75
2022-09-03T15:23:20.517Z,100579.38
2022-09-03T15:26:06.350Z,100569.03
2022-09-03T15:28:45.529Z,100567.44
2022-09-03T15:31:24.797Z,100582.66
2022-09-03T15:34:01.064Z,100581.91
2022-09-03T15:36:35.227Z,100590.00
2022-09-03T15:39:06.446Z,100593.56
2022-09-03T15:41:33.713Z,100593.84
2022-09-03T15:44:02.052Z,100585.50
2022-09-03T15:46:37.440Z,100583.78
2022-09-03T15:49:13.033Z,100590.09
2022-09-03T15:51:50.060Z,100586.63
2022-09-03T15:54:27.092Z,100586.34
2022-09-03T15:57:17.735Z,100593.25
2022-09-03T15:59:47.873Z,100592.06
2022-09-03T16:02:20.225Z,100589.94
2022-09-03T16:05:07.945Z,100594.22
2022-09-03T16:07:37.855Z,100601.88
2022-09-03T16:10:24.788Z,100598.41
2022-09-03T16:13:01.989Z,100597.97
2022-09-03T16:15:32.988Z,100602.09
2022-09-03T16:18:23.374Z,100606.56
2022-09-03T16:21:01.202Z,100601.97
2022-09-03T16:23:32.617Z,100602.53
2022-09-03T16:26:20.063Z,100599.53
2022-09-03T16:28:58.554Z,100592.94
2022-09-03T16:31:40.022Z,100594.06
2022-09-03T16:34:21.886Z,100596.41
2022-09-03T16:36:49.243Z,100592.38
2022-09-03T16:39:16.575Z,100596.97
2022-09-03T16:41:58.127Z,100595.09
2022-09-03T16:44:31.381Z,100608.31
2022-09-03T16:47:04.163Z,100607.00
2022-09-03T16:49:50.524Z,100609.56
2022-09-03T16:52:39.017Z,100606.53
2022-09-03T16:55:07.143Z,100610.25
2022-09-03T16:57:54.464Z,100600.94
2022-09-03T17:00:21.946Z,100611.00
2022-09-03T17:03:26.522Z,100609.38
2022-09-03T17:06:06.281Z,100606.66
2022-09-03T17:08:55.246Z,100605.81
2022-09-03T17:11:34.508Z,100606.94
2022-09-03T17:14:01.797Z,100604.22
2022-09-03T17:16:29.035Z,100605.94
2022-09-03T17:19:05.525Z,100605.81
2022-09-03T17:21:39.217Z,100612.94
2022-09-03T17:24:23.390Z,100604.19
2022-09-03T17:27:05.971Z,100608.31
2022-09-03T17:29:35.944Z,100602.75
2022-09-03T17:32:15.141Z,100610.47
2022-09-03T17:35:00.682Z,100614.44
2022-09-03T17:37:30.874Z,100611.13
2022-09-03T17:40:05.817Z,100614.56
2022-09-03T17:42:59.134Z,100616.72
2022-09-03T17:45:47.267Z,100617.56
2022-09-03T17:48:14.471Z,100616.72
2022-09-03T17:50:57.970Z,100630.19
2022-09-03T17:53:32.342Z,100631.41
2022-09-03T17:56:11.857Z,100632.78
2022-09-03T17:58:41.458Z,100637.06
2022-09-03T18:01:11.445Z,100637.88
2022-09-03T18:03:41.435Z,100639.91
2022-09-03T18:06:11.165Z,100642.47
2022-09-03T18:08:44.209Z,100656.25
2022-09-03T18:11:33.931Z,100663.06
2022-09-03T18:14:20.089Z,100659.53
2022-09-03T18:16:55.897Z,100672.59
2022-09-03T18:19:31.832Z,100674.44
2022-09-03T18:22:18.999Z,100675.56
2022-09-03T18:25:14.512Z,100691.41
2022-09-03T18:28:09.404Z,100694.44
2022-09-03T18:30:55.269Z,100692.72
2022-09-03T18:33:43.232Z,100696.97
2022-09-03T18:36:29.657Z,100703.53
2022-09-03T18:39:21.650Z,100710.91
2022-09-03T18:42:16.454Z,100713.91
2022-09-03T18:45:20.703Z,100717.50
2022-09-03T18:48:16.487Z,100714.91
2022-09-03T18:51:19.993Z,100723.00
2022-09-03T18:54:08.863Z,100718.56
2022-09-03T18:57:07.985Z,100721.66
2022-09-03T19:00:05.984Z,100715.75
2022-09-03T19:03:04.774Z,100725.59
2022-09-03T19:05:50.378Z,100730.06
2022-09-03T19:08:36.207Z,100731.19
2022-09-03T19:11:29.391Z,100724.59
2022-09-03T19:14:18.644Z,100725.31
2022-09-03T19:17:07.545Z,100733.41
2022-09-03T19:19:58.904Z,100741.09
2022-09-03T19:22:55.899Z,100744.66
2022-09-03T19:25:42.328Z,100741.66
2022-09-03T19:28:38.396Z,100748.84
2022-09-03T19:31:30.729Z,100747.72
2022-09-03T19:34:22.562Z,100752.41
2022-09-03T19:37:27.160Z,100743.91
2022-09-03T19:40:19.244Z,100749.16
2022-09-03T19:43:05.177Z,100752.38
2022-09-03T19:45:57.152Z,100748.91
2022-09-03T19:49:01.883Z,100752.00
2022-09-03T19:51:55.209Z,100755.28
2022-09-03T19:54:42.791Z,100755.50
2022-09-03T19:57:30.625Z,100752.31
2022-09-03T20:00:16.911Z,100742.97
2022-09-03T20:03:16.841Z,100745.22
2022-09-03T20:06:07.608Z,100756.25
2022-09-03T20:08:56.589Z,100757.75
2022-09-03T20:11:25.489Z,100757.75
2022-09-03T20:14:14.305Z,100758.66
2022-09-03T20:16:44.657Z,100774.91
2022-09-03T20:19:29.990Z,100768.00
2022-09-03T20:22:00.793Z,100772.72
2022-09-03T20:24:47.212Z,100774.84
2022-09-03T20:27:30.492Z,100773.47
2022-09-03T20:30:00.508Z,100780.25
2022-09-03T20:32:27.675Z,100780.25
2022-09-03T20:34:57.645Z,100780.13
2022-09-03T20:37:28.541Z,100786.56
2022-09-03T20:40:02.087Z,100788.03
2022-09-03T20:42:45.728Z,100796.97
2022-09-03T20:45:18.979Z,100794.22
2022-09-03T20:48:00.337Z,100794.25
2022-09-03T20:50:27.676Z,100798.66
2022-09-03T20:53:01.558Z,100798.91
2022-09-03T20:55:37.971Z,100788.53
2022-09-03T20:58:05.798Z,100794.72
2022-09-03T21:00:49.289Z,100804.13
2022-09-03T21:03:27.046Z,100805.22
2022-09-03T21:06:03.780Z,100811.41
2022-09-03T21:08:40.089Z,100804.72
2022-09-03T21:11:14.528Z,100809.19
2022-09-03T21:13:46.305Z,100810.28
2022-09-03T21:16:32.332Z,100811.66
2022-09-03T21:18:59.546Z,100814.72
2022-09-03T21:22:05.440Z,100813.84
2022-09-03T21:24:32.664Z,100820.22
2022-09-03T21:27:03.727Z,100820.38
2022-09-03T21:29:34.470Z,100825.94
2022-09-03T21:32:18.614Z,100838.44
2022-09-03T21:34:58.283Z,100835.97
2022-09-03T21:37:25.496Z,100833.25
2022-09-03T21:39:55.724Z,100831.88
2022-09-03T21:42:49.085Z,100834.84
2022-09-03T21:45:31.178Z,100834.47
2022-09-03T21:48:15.592Z,100842.75
2022-09-03T21:50:48.149Z,100843.25
2022-09-03T21:53:21.138Z,100835.19
2022-09-03T21:56:05.362Z,100835.19
2022-09-03T21:58:49.643Z,100828.66
2022-09-03T22:01:37.147Z,100825.09
2022-09-03T22:04:04.545Z,100831.59
2022-09-03T22:06:38.281Z,100821.50
2022-09-03T22:09:11.821Z,100831.88
2022-09-03T22:11:45.684Z,100831.25
2022-09-03T22:14:15.028Z,100830.53
2022-09-03T22:16:47.666Z,100829.13
2022-09-03T22:19:15.095Z,100833.72
2022-09-03T22:21:57.141Z,100823.50
2022-09-03T22:24:33.329Z,100829.06
2022-09-03T22:27:15.606Z,100833.88
2022-09-03T22:29:49.202Z,100837.56
2022-09-03T22:32:26.673Z,100836.19
2022-09-03T22:35:08.255Z,100831.13
2022-09-03T22:37:54.109Z,100832.75
2022-09-03T22:40:40.018Z,100830.00
2022-09-03T22:43:07.228Z,100822.25
2022-09-03T22:45:54.445Z,100826.69
2022-09-03T22:48:40.638Z,100817.25
2022-09-03T22:51:09.208Z,100817.78
2022-09-03T22:53:51.396Z,100816.53
2022-09-03T22:56:22.245Z,100823.22
2022-09-03T22:59:09.681Z,100811.72
2022-09-03T23:01:41.467Z,100820.97
2022-09-03T23:04:11.670Z,100822.03
2022-09-03T23:06:48.626Z,100821.88
2022-09-03T23:09:17.588Z,100821.59
2022-09-03T23:11:51.394Z,100811.81
2022-09-03T23:14:22.474Z,100821.28
2022-09-03T23:17:04.382Z,100823.50
2022-09-03T23:19:40.810Z,100820.06
2022-09-03T23:22:13.274Z,100825.13
2022-09-03T23:24:43.448Z,100829.75
2022-09-03T23:27:14.934Z,100829.41
2022-09-03T23:29:47.776Z,100826.16
2022-09-03T23:32:15.275Z,100826.56
2022-09-03T23:34:42.469Z,100834.88
2022-09-03T23:37:35.360Z,100830.47
2022-09-03T23:40:09.140Z,100827.66
2022-09-03T23:42:54.965Z,100823.97
2022-09-03T23:45:28.222Z,100827.88
2022-09-03T23:48:14.652Z,100826.88
2022-09-03T23:50:56.898Z,100826.78
2022-09-03T23:53:30.076Z,100822.56
2022-09-03T23:56:03.191Z,100821.78
2022-09-03T23:58:36.661Z,100819.78
